sensor_id;sensor_type;location;lat;lon;timestamp;P1;durP1;ratioP1;P2;durP2;ratioP2
77409;SDS011;66481;51.332;22.804;2023-02-28T00:00:51;10.00;;;5.07;;
77409;SDS011;66481;51.332;22.804;2023-02-28T00:04:53;9.68;;;4.68;;
77409;SDS011;66481;51.332;22.804;2023-02-28T00:09:01;10.10;;;5.40;;
77409;SDS011;66481;51.332;22.804;2023-02-28T00:13:04;10.05;;;4.80;;
77409;SDS011;66481;51.332;22.804;2023-02-28T00:17:06;12.05;;;6.07;;
77409;SDS011;66481;51.332;22.804;2023-02-28T00:21:07;12.20;;;5.82;;
77409;SDS011;66481;51.332;22.804;2023-02-28T00:25:10;10.93;;;5.47;;
77409;SDS011;66481;51.332;22.804;2023-02-28T00:29:12;11.70;;;6.70;;
77409;SDS011;66481;51.332;22.804;2023-02-28T00:33:13;12.75;;;5.85;;
77409;SDS011;66481;51.332;22.804;2023-02-28T00:37:14;13.05;;;5.68;;
77409;SDS011;66481;51.332;22.804;2023-02-28T00:41:15;14.77;;;5.47;;
77409;SDS011;66481;51.332;22.804;2023-02-28T00:45:16;8.38;;;4.63;;
77409;SDS011;66481;51.332;22.804;2023-02-28T00:49:17;11.50;;;5.03;;
77409;SDS011;66481;51.332;22.804;2023-02-28T00:53:18;11.48;;;5.20;;
77409;SDS011;66481;51.332;22.804;2023-02-28T00:57:19;9.23;;;4.57;;
77409;SDS011;66481;51.332;22.804;2023-02-28T01:01:20;9.13;;;4.35;;
77409;SDS011;66481;51.332;22.804;2023-02-28T01:05:20;7.97;;;4.28;;
77409;SDS011;66481;51.332;22.804;2023-02-28T01:09:21;9.70;;;4.65;;
77409;SDS011;66481;51.332;22.804;2023-02-28T01:13:23;11.90;;;5.15;;
77409;SDS011;66481;51.332;22.804;2023-02-28T01:17:24;12.85;;;5.18;;
77409;SDS011;66481;51.332;22.804;2023-02-28T01:21:25;11.15;;;4.70;;
77409;SDS011;66481;51.332;22.804;2023-02-28T01:25:26;13.82;;;5.25;;
77409;SDS011;66481;51.332;22.804;2023-02-28T01:29:27;9.85;;;4.55;;
77409;SDS011;66481;51.332;22.804;2023-02-28T01:33:28;13.27;;;6.20;;
77409;SDS011;66481;51.332;22.804;2023-02-28T01:37:31;9.68;;;5.05;;
77409;SDS011;66481;51.332;22.804;2023-02-28T01:41:33;8.80;;;4.60;;
77409;SDS011;66481;51.332;22.804;2023-02-28T01:45:34;8.40;;;4.70;;
77409;SDS011;66481;51.332;22.804;2023-02-28T01:49:36;9.68;;;4.43;;
77409;SDS011;66481;51.332;22.804;2023-02-28T01:53:38;6.30;;;3.97;;
77409;SDS011;66481;51.332;22.804;2023-02-28T01:57:51;8.00;;;4.10;;
77409;SDS011;66481;51.332;22.804;2023-02-28T02:01:55;9.10;;;5.32;;
77409;SDS011;66481;51.332;22.804;2023-02-28T02:05:56;8.32;;;4.68;;
77409;SDS011;66481;51.332;22.804;2023-02-28T02:10:02;8.65;;;5.32;;
77409;SDS011;66481;51.332;22.804;2023-02-28T02:14:28;7.50;;;4.05;;
77409;SDS011;66481;51.332;22.804;2023-02-28T02:18:44;10.82;;;5.15;;
77409;SDS011;66481;51.332;22.804;2023-02-28T02:44:24;13.45;;;5.72;;
77409;SDS011;66481;51.332;22.804;2023-02-28T02:48:31;11.85;;;6.10;;
77409;SDS011;66481;51.332;22.804;2023-02-28T02:56:42;7.70;;;4.18;;
77409;SDS011;66481;51.332;22.804;2023-02-28T03:00:47;8.18;;;4.35;;
77409;SDS011;66481;51.332;22.804;2023-02-28T03:04:55;8.45;;;4.25;;
77409;SDS011;66481;51.332;22.804;2023-02-28T03:09:00;10.75;;;4.88;;
77409;SDS011;66481;51.332;22.804;2023-02-28T03:25:54;11.00;;;4.68;;
77409;SDS011;66481;51.332;22.804;2023-02-28T03:30:03;11.18;;;4.65;;
77409;SDS011;66481;51.332;22.804;2023-02-28T03:34:21;10.77;;;4.82;;
77409;SDS011;66481;51.332;22.804;2023-02-28T03:38:28;7.38;;;4.07;;
77409;SDS011;66481;51.332;22.804;2023-02-28T03:42:35;6.90;;;3.65;;
77409;SDS011;66481;51.332;22.804;2023-02-28T03:46:38;7.15;;;4.75;;
77409;SDS011;66481;51.332;22.804;2023-02-28T03:50:47;10.93;;;4.72;;
77409;SDS011;66481;51.332;22.804;2023-02-28T03:54:54;7.55;;;4.75;;
77409;SDS011;66481;51.332;22.804;2023-02-28T03:59:17;11.20;;;5.57;;
77409;SDS011;66481;51.332;22.804;2023-02-28T04:03:22;8.63;;;4.57;;
77409;SDS011;66481;51.332;22.804;2023-02-28T04:07:24;8.57;;;4.40;;
77409;SDS011;66481;51.332;22.804;2023-02-28T04:15:33;9.18;;;4.82;;
77409;SDS011;66481;51.332;22.804;2023-02-28T04:19:33;7.80;;;5.00;;
77409;SDS011;66481;51.332;22.804;2023-02-28T04:23:34;14.90;;;5.53;;
77409;SDS011;66481;51.332;22.804;2023-02-28T04:27:35;8.13;;;4.90;;
77409;SDS011;66481;51.332;22.804;2023-02-28T04:31:36;7.63;;;5.10;;
77409;SDS011;66481;51.332;22.804;2023-02-28T04:35:37;11.23;;;5.85;;
77409;SDS011;66481;51.332;22.804;2023-02-28T04:39:38;10.65;;;6.20;;
77409;SDS011;66481;51.332;22.804;2023-02-28T04:43:40;12.00;;;5.05;;
77409;SDS011;66481;51.332;22.804;2023-02-28T04:47:41;9.90;;;5.78;;
77409;SDS011;66481;51.332;22.804;2023-02-28T04:51:42;12.10;;;6.45;;
77409;SDS011;66481;51.332;22.804;2023-02-28T04:55:43;15.30;;;6.53;;
77409;SDS011;66481;51.332;22.804;2023-02-28T04:59:45;12.32;;;6.35;;
77409;SDS011;66481;51.332;22.804;2023-02-28T05:03:46;12.15;;;6.50;;
77409;SDS011;66481;51.332;22.804;2023-02-28T05:07:47;18.45;;;7.28;;
77409;SDS011;66481;51.332;22.804;2023-02-28T05:11:48;18.08;;;6.43;;
77409;SDS011;66481;51.332;22.804;2023-02-28T05:15:49;14.20;;;6.40;;
77409;SDS011;66481;51.332;22.804;2023-02-28T05:19:50;24.52;;;11.43;;
77409;SDS011;66481;51.332;22.804;2023-02-28T05:23:51;17.77;;;8.43;;
77409;SDS011;66481;51.332;22.804;2023-02-28T05:27:52;13.80;;;6.90;;
77409;SDS011;66481;51.332;22.804;2023-02-28T05:31:53;13.65;;;6.20;;
77409;SDS011;66481;51.332;22.804;2023-02-28T05:35:54;14.55;;;7.50;;
77409;SDS011;66481;51.332;22.804;2023-02-28T05:39:56;30.80;;;12.88;;
77409;SDS011;66481;51.332;22.804;2023-02-28T05:43:57;14.20;;;6.00;;
77409;SDS011;66481;51.332;22.804;2023-02-28T05:48:00;11.98;;;5.13;;
77409;SDS011;66481;51.332;22.804;2023-02-28T05:52:01;11.73;;;5.78;;
77409;SDS011;66481;51.332;22.804;2023-02-28T05:56:02;11.27;;;6.10;;
77409;SDS011;66481;51.332;22.804;2023-02-28T06:00:04;12.27;;;6.38;;
77409;SDS011;66481;51.332;22.804;2023-02-28T06:04:07;10.55;;;8.25;;
77409;SDS011;66481;51.332;22.804;2023-02-28T06:08:10;10.73;;;6.10;;
77409;SDS011;66481;51.332;22.804;2023-02-28T06:12:11;12.07;;;7.13;;
77409;SDS011;66481;51.332;22.804;2023-02-28T06:16:12;10.50;;;5.32;;
77409;SDS011;66481;51.332;22.804;2023-02-28T06:20:13;12.63;;;6.75;;
77409;SDS011;66481;51.332;22.804;2023-02-28T06:24:15;10.07;;;6.53;;
77409;SDS011;66481;51.332;22.804;2023-02-28T06:28:16;15.07;;;7.65;;
77409;SDS011;66481;51.332;22.804;2023-02-28T06:32:18;17.70;;;8.35;;
77409;SDS011;66481;51.332;22.804;2023-02-28T06:36:20;18.55;;;8.43;;
77409;SDS011;66481;51.332;22.804;2023-02-28T06:40:21;13.55;;;6.85;;
77409;SDS011;66481;51.332;22.804;2023-02-28T06:44:22;11.40;;;6.20;;
77409;SDS011;66481;51.332;22.804;2023-02-28T06:48:25;8.88;;;5.47;;
77409;SDS011;66481;51.332;22.804;2023-02-28T06:52:28;12.10;;;6.78;;
77409;SDS011;66481;51.332;22.804;2023-02-28T06:56:29;7.13;;;5.22;;
77409;SDS011;66481;51.332;22.804;2023-02-28T07:00:30;8.23;;;5.50;;
77409;SDS011;66481;51.332;22.804;2023-02-28T07:04:31;7.93;;;5.40;;
77409;SDS011;66481;51.332;22.804;2023-02-28T07:08:33;8.45;;;5.75;;
77409;SDS011;66481;51.332;22.804;2023-02-28T07:12:37;8.95;;;5.63;;
77409;SDS011;66481;51.332;22.804;2023-02-28T07:16:38;7.18;;;4.88;;
77409;SDS011;66481;51.332;22.804;2023-02-28T07:20:38;7.63;;;4.63;;
77409;SDS011;66481;51.332;22.804;2023-02-28T07:24:39;9.70;;;5.75;;
77409;SDS011;66481;51.332;22.804;2023-02-28T07:28:42;10.05;;;6.25;;
77409;SDS011;66481;51.332;22.804;2023-02-28T07:32:43;6.40;;;4.60;;
77409;SDS011;66481;51.332;22.804;2023-02-28T07:36:45;8.27;;;5.03;;
77409;SDS011;66481;51.332;22.804;2023-02-28T07:40:46;7.10;;;4.72;;
77409;SDS011;66481;51.332;22.804;2023-02-28T07:44:47;8.60;;;4.57;;
77409;SDS011;66481;51.332;22.804;2023-02-28T07:48:48;7.35;;;5.32;;
77409;SDS011;66481;51.332;22.804;2023-02-28T07:52:49;5.13;;;4.35;;
77409;SDS011;66481;51.332;22.804;2023-02-28T07:56:50;5.97;;;4.20;;
77409;SDS011;66481;51.332;22.804;2023-02-28T08:00:51;6.15;;;4.50;;
77409;SDS011;66481;51.332;22.804;2023-02-28T08:04:52;6.47;;;4.55;;
77409;SDS011;66481;51.332;22.804;2023-02-28T08:08:53;9.20;;;5.15;;
77409;SDS011;66481;51.332;22.804;2023-02-28T08:12:54;5.32;;;4.47;;
77409;SDS011;66481;51.332;22.804;2023-02-28T08:16:55;5.88;;;5.05;;
77409;SDS011;66481;51.332;22.804;2023-02-28T08:20:56;5.60;;;4.25;;
77409;SDS011;66481;51.332;22.804;2023-02-28T08:24:57;7.05;;;5.60;;
77409;SDS011;66481;51.332;22.804;2023-02-28T08:29:01;6.07;;;5.45;;
77409;SDS011;66481;51.332;22.804;2023-02-28T08:33:02;6.07;;;5.45;;
77409;SDS011;66481;51.332;22.804;2023-02-28T08:37:04;7.78;;;6.72;;
77409;SDS011;66481;51.332;22.804;2023-02-28T08:41:07;7.07;;;5.15;;
77409;SDS011;66481;51.332;22.804;2023-02-28T08:45:11;7.55;;;5.57;;
77409;SDS011;66481;51.332;22.804;2023-02-28T08:49:13;7.32;;;5.82;;
77409;SDS011;66481;51.332;22.804;2023-02-28T08:53:15;5.80;;;5.00;;
77409;SDS011;66481;51.332;22.804;2023-02-28T08:57:17;7.53;;;6.10;;
77409;SDS011;66481;51.332;22.804;2023-02-28T09:01:20;7.90;;;6.15;;
77409;SDS011;66481;51.332;22.804;2023-02-28T09:05:23;8.13;;;6.13;;
77409;SDS011;66481;51.332;22.804;2023-02-28T09:09:25;6.13;;;5.38;;
77409;SDS011;66481;51.332;22.804;2023-02-28T09:13:26;7.43;;;6.00;;
77409;SDS011;66481;51.332;22.804;2023-02-28T09:17:26;7.72;;;6.25;;
77409;SDS011;66481;51.332;22.804;2023-02-28T09:21:28;7.28;;;5.38;;
77409;SDS011;66481;51.332;22.804;2023-02-28T09:25:29;9.75;;;6.82;;
77409;SDS011;66481;51.332;22.804;2023-02-28T09:29:31;7.30;;;6.47;;
77409;SDS011;66481;51.332;22.804;2023-02-28T09:33:34;8.93;;;6.15;;
77409;SDS011;66481;51.332;22.804;2023-02-28T09:37:35;8.30;;;6.82;;
77409;SDS011;66481;51.332;22.804;2023-02-28T09:41:37;8.25;;;6.47;;
77409;SDS011;66481;51.332;22.804;2023-02-28T09:45:49;9.02;;;6.60;;
77409;SDS011;66481;51.332;22.804;2023-02-28T09:50:01;9.10;;;7.00;;
77409;SDS011;66481;51.332;22.804;2023-02-28T09:54:19;8.43;;;6.25;;
77409;SDS011;66481;51.332;22.804;2023-02-28T10:06:51;9.27;;;6.57;;
77409;SDS011;66481;51.332;22.804;2023-02-28T10:10:55;7.40;;;6.32;;
77409;SDS011;66481;51.332;22.804;2023-02-28T10:15:00;7.40;;;5.90;;
77409;SDS011;66481;51.332;22.804;2023-02-28T10:19:08;8.30;;;6.30;;
77409;SDS011;66481;51.332;22.804;2023-02-28T10:23:23;8.13;;;6.15;;
77409;SDS011;66481;51.332;22.804;2023-02-28T10:27:33;8.73;;;6.40;;
77409;SDS011;66481;51.332;22.804;2023-02-28T10:31:36;8.52;;;6.45;;
77409;SDS011;66481;51.332;22.804;2023-02-28T10:35:41;9.98;;;7.07;;
77409;SDS011;66481;51.332;22.804;2023-02-28T10:39:51;7.57;;;5.90;;
77409;SDS011;66481;51.332;22.804;2023-02-28T10:43:53;9.45;;;6.70;;
77409;SDS011;66481;51.332;22.804;2023-02-28T10:48:31;13.77;;;7.28;;
77409;SDS011;66481;51.332;22.804;2023-02-28T10:52:37;10.27;;;8.07;;
77409;SDS011;66481;51.332;22.804;2023-02-28T10:57:06;10.75;;;7.47;;
77409;SDS011;66481;51.332;22.804;2023-02-28T11:05:44;11.23;;;7.60;;
77409;SDS011;66481;51.332;22.804;2023-02-28T11:09:57;9.27;;;6.93;;
77409;SDS011;66481;51.332;22.804;2023-02-28T11:14:03;9.90;;;8.07;;
77409;SDS011;66481;51.332;22.804;2023-02-28T11:22:27;9.68;;;7.32;;
77409;SDS011;66481;51.332;22.804;2023-02-28T11:26:48;10.63;;;6.97;;
77409;SDS011;66481;51.332;22.804;2023-02-28T11:35:36;11.20;;;7.80;;
77409;SDS011;66481;51.332;22.804;2023-02-28T11:39:42;11.30;;;8.10;;
77409;SDS011;66481;51.332;22.804;2023-02-28T11:52:51;11.00;;;7.75;;
77409;SDS011;66481;51.332;22.804;2023-02-28T12:15:21;10.35;;;7.25;;
77409;SDS011;66481;51.332;22.804;2023-02-28T12:24:20;9.32;;;6.95;;
77409;SDS011;66481;51.332;22.804;2023-02-28T12:28:47;10.82;;;7.50;;
77409;SDS011;66481;51.332;22.804;2023-02-28T12:32:55;9.90;;;6.80;;
77409;SDS011;66481;51.332;22.804;2023-02-28T12:37:04;12.25;;;7.72;;
77409;SDS011;66481;51.332;22.804;2023-02-28T12:41:16;12.45;;;7.45;;
77409;SDS011;66481;51.332;22.804;2023-02-28T12:49:46;11.38;;;7.78;;
77409;SDS011;66481;51.332;22.804;2023-02-28T12:58:33;12.10;;;7.25;;
77409;SDS011;66481;51.332;22.804;2023-02-28T13:02:47;13.00;;;6.80;;
77409;SDS011;66481;51.332;22.804;2023-02-28T13:11:55;11.55;;;7.38;;
77409;SDS011;66481;51.332;22.804;2023-02-28T13:16:09;10.57;;;6.75;;
77409;SDS011;66481;51.332;22.804;2023-02-28T13:20:20;9.60;;;6.13;;
77409;SDS011;66481;51.332;22.804;2023-02-28T13:33:17;8.60;;;7.00;;
77409;SDS011;66481;51.332;22.804;2023-02-28T13:46:26;11.73;;;7.10;;
77409;SDS011;66481;51.332;22.804;2023-02-28T13:50:34;12.00;;;7.93;;
77409;SDS011;66481;51.332;22.804;2023-02-28T14:09:38;11.63;;;7.22;;
77409;SDS011;66481;51.332;22.804;2023-02-28T14:13:50;12.02;;;7.38;;
77409;SDS011;66481;51.332;22.804;2023-02-28T14:17:54;10.18;;;7.63;;
77409;SDS011;66481;51.332;22.804;2023-02-28T14:38:53;11.52;;;7.85;;
77409;SDS011;66481;51.332;22.804;2023-02-28T14:43:00;11.02;;;7.40;;
77409;SDS011;66481;51.332;22.804;2023-02-28T14:47:04;10.35;;;6.47;;
77409;SDS011;66481;51.332;22.804;2023-02-28T14:51:20;12.20;;;7.50;;
77409;SDS011;66481;51.332;22.804;2023-02-28T14:55:24;11.57;;;7.75;;
77409;SDS011;66481;51.332;22.804;2023-02-28T14:59:30;11.27;;;7.68;;
77409;SDS011;66481;51.332;22.804;2023-02-28T15:09:15;13.43;;;8.02;;
77409;SDS011;66481;51.332;22.804;2023-02-28T15:13:19;12.50;;;7.97;;
77409;SDS011;66481;51.332;22.804;2023-02-28T15:17:22;9.50;;;6.97;;
77409;SDS011;66481;51.332;22.804;2023-02-28T15:21:31;11.55;;;7.90;;
77409;SDS011;66481;51.332;22.804;2023-02-28T15:25:38;14.65;;;8.80;;
77409;SDS011;66481;51.332;22.804;2023-02-28T15:29:43;14.63;;;8.32;;
77409;SDS011;66481;51.332;22.804;2023-02-28T15:33:56;14.25;;;8.98;;
77409;SDS011;66481;51.332;22.804;2023-02-28T15:38:13;14.98;;;8.88;;
77409;SDS011;66481;51.332;22.804;2023-02-28T15:42:18;11.27;;;8.35;;
77409;SDS011;66481;51.332;22.804;2023-02-28T15:46:21;14.15;;;8.00;;
77409;SDS011;66481;51.332;22.804;2023-02-28T15:50:23;12.55;;;7.68;;
77409;SDS011;66481;51.332;22.804;2023-02-28T15:54:25;14.38;;;8.27;;
77409;SDS011;66481;51.332;22.804;2023-02-28T15:58:30;15.98;;;9.07;;
77409;SDS011;66481;51.332;22.804;2023-02-28T16:02:36;17.67;;;9.85;;
77409;SDS011;66481;51.332;22.804;2023-02-28T16:06:40;15.63;;;9.45;;
77409;SDS011;66481;51.332;22.804;2023-02-28T16:11:02;16.52;;;10.13;;
77409;SDS011;66481;51.332;22.804;2023-02-28T16:15:07;18.67;;;9.93;;
77409;SDS011;66481;51.332;22.804;2023-02-28T16:19:18;16.83;;;9.68;;
77409;SDS011;66481;51.332;22.804;2023-02-28T16:23:20;19.50;;;10.55;;
77409;SDS011;66481;51.332;22.804;2023-02-28T16:27:30;21.20;;;10.85;;
77409;SDS011;66481;51.332;22.804;2023-02-28T16:31:35;18.30;;;11.77;;
77409;SDS011;66481;51.332;22.804;2023-02-28T16:35:39;25.95;;;12.60;;
77409;SDS011;66481;51.332;22.804;2023-02-28T16:39:42;22.75;;;13.20;;
77409;SDS011;66481;51.332;22.804;2023-02-28T16:43:47;28.08;;;13.40;;
77409;SDS011;66481;51.332;22.804;2023-02-28T16:47:50;24.02;;;11.82;;
77409;SDS011;66481;51.332;22.804;2023-02-28T16:51:51;28.35;;;13.80;;
77409;SDS011;66481;51.332;22.804;2023-02-28T16:55:53;26.70;;;13.05;;
77409;SDS011;66481;51.332;22.804;2023-02-28T16:59:54;37.40;;;16.10;;
77409;SDS011;66481;51.332;22.804;2023-02-28T17:03:56;46.53;;;20.02;;
77409;SDS011;66481;51.332;22.804;2023-02-28T17:07:59;54.55;;;19.58;;
77409;SDS011;66481;51.332;22.804;2023-02-28T17:12:01;73.15;;;25.30;;
77409;SDS011;66481;51.332;22.804;2023-02-28T17:16:02;80.90;;;26.98;;
77409;SDS011;66481;51.332;22.804;2023-02-28T17:20:04;73.63;;;27.13;;
77409;SDS011;66481;51.332;22.804;2023-02-28T17:24:06;70.97;;;26.52;;
77409;SDS011;66481;51.332;22.804;2023-02-28T17:28:08;47.10;;;22.48;;
77409;SDS011;66481;51.332;22.804;2023-02-28T17:32:09;43.15;;;18.95;;
77409;SDS011;66481;51.332;22.804;2023-02-28T17:36:15;42.92;;;20.15;;
77409;SDS011;66481;51.332;22.804;2023-02-28T17:40:19;58.28;;;24.52;;
77409;SDS011;66481;51.332;22.804;2023-02-28T17:44:23;60.95;;;28.55;;
77409;SDS011;66481;51.332;22.804;2023-02-28T17:48:25;78.68;;;32.45;;
77409;SDS011;66481;51.332;22.804;2023-02-28T17:52:28;70.07;;;30.63;;
77409;SDS011;66481;51.332;22.804;2023-02-28T17:56:30;62.72;;;27.73;;
77409;SDS011;66481;51.332;22.804;2023-02-28T18:00:31;70.68;;;31.30;;
77409;SDS011;66481;51.332;22.804;2023-02-28T18:04:34;73.00;;;29.92;;
77409;SDS011;66481;51.332;22.804;2023-02-28T18:08:35;69.03;;;29.38;;
77409;SDS011;66481;51.332;22.804;2023-02-28T18:12:36;52.33;;;26.75;;
77409;SDS011;66481;51.332;22.804;2023-02-28T18:16:41;59.10;;;27.10;;
77409;SDS011;66481;51.332;22.804;2023-02-28T18:20:45;72.72;;;30.20;;
77409;SDS011;66481;51.332;22.804;2023-02-28T18:24:49;61.15;;;27.75;;
77409;SDS011;66481;51.332;22.804;2023-02-28T18:28:51;73.18;;;31.65;;
77409;SDS011;66481;51.332;22.804;2023-02-28T18:32:53;63.17;;;27.55;;
77409;SDS011;66481;51.332;22.804;2023-02-28T18:36:55;73.63;;;29.75;;
77409;SDS011;66481;51.332;22.804;2023-02-28T18:40:58;74.55;;;32.25;;
77409;SDS011;66481;51.332;22.804;2023-02-28T18:45:03;82.03;;;35.20;;
77409;SDS011;66481;51.332;22.804;2023-02-28T18:49:06;97.45;;;40.50;;
77409;SDS011;66481;51.332;22.804;2023-02-28T18:53:07;100.03;;;45.03;;
77409;SDS011;66481;51.332;22.804;2023-02-28T18:57:09;74.53;;;33.10;;
77409;SDS011;66481;51.332;22.804;2023-02-28T19:01:16;70.63;;;30.60;;
77409;SDS011;66481;51.332;22.804;2023-02-28T19:05:21;74.43;;;33.67;;
77409;SDS011;66481;51.332;22.804;2023-02-28T19:09:22;96.70;;;39.67;;
77409;SDS011;66481;51.332;22.804;2023-02-28T19:13:24;97.40;;;41.10;;
77409;SDS011;66481;51.332;22.804;2023-02-28T19:17:26;104.10;;;42.70;;
77409;SDS011;66481;51.332;22.804;2023-02-28T19:21:27;93.93;;;38.53;;
77409;SDS011;66481;51.332;22.804;2023-02-28T19:25:30;87.72;;;37.88;;
77409;SDS011;66481;51.332;22.804;2023-02-28T19:34:46;87.53;;;36.92;;
77409;SDS011;66481;51.332;22.804;2023-02-28T19:38:49;103.22;;;42.13;;
77409;SDS011;66481;51.332;22.804;2023-02-28T19:42:50;100.15;;;38.35;;
77409;SDS011;66481;51.332;22.804;2023-02-28T19:46:52;101.70;;;44.42;;
77409;SDS011;66481;51.332;22.804;2023-02-28T19:50:58;103.63;;;45.63;;
77409;SDS011;66481;51.332;22.804;2023-02-28T19:55:01;125.03;;;52.67;;
77409;SDS011;66481;51.332;22.804;2023-02-28T19:59:03;131.25;;;57.08;;
77409;SDS011;66481;51.332;22.804;2023-02-28T20:03:04;119.47;;;50.63;;
77409;SDS011;66481;51.332;22.804;2023-02-28T20:07:06;117.68;;;49.35;;
77409;SDS011;66481;51.332;22.804;2023-02-28T20:11:12;125.35;;;50.83;;
77409;SDS011;66481;51.332;22.804;2023-02-28T20:15:16;125.00;;;52.10;;
77409;SDS011;66481;51.332;22.804;2023-02-28T20:19:17;115.95;;;52.20;;
77409;SDS011;66481;51.332;22.804;2023-02-28T20:23:19;107.57;;;47.13;;
77409;SDS011;66481;51.332;22.804;2023-02-28T20:27:21;104.60;;;44.53;;
77409;SDS011;66481;51.332;22.804;2023-02-28T20:31:23;97.20;;;41.53;;
77409;SDS011;66481;51.332;22.804;2023-02-28T20:35:26;110.63;;;46.97;;
77409;SDS011;66481;51.332;22.804;2023-02-28T20:39:27;104.93;;;42.95;;
77409;SDS011;66481;51.332;22.804;2023-02-28T20:43:28;116.03;;;46.45;;
77409;SDS011;66481;51.332;22.804;2023-02-28T20:47:31;112.20;;;46.08;;
77409;SDS011;66481;51.332;22.804;2023-02-28T20:51:34;111.32;;;45.65;;
77409;SDS011;66481;51.332;22.804;2023-02-28T20:55:54;107.20;;;43.90;;
77409;SDS011;66481;51.332;22.804;2023-02-28T21:04:19;120.68;;;45.28;;
77409;SDS011;66481;51.332;22.804;2023-02-28T21:08:21;102.72;;;44.13;;
77409;SDS011;66481;51.332;22.804;2023-02-28T21:12:22;110.15;;;45.75;;
77409;SDS011;66481;51.332;22.804;2023-02-28T21:16:25;116.80;;;48.58;;
77409;SDS011;66481;51.332;22.804;2023-02-28T21:24:30;111.72;;;47.28;;
77409;SDS011;66481;51.332;22.804;2023-02-28T21:28:32;111.05;;;48.28;;
77409;SDS011;66481;51.332;22.804;2023-02-28T21:32:35;115.15;;;47.05;;
77409;SDS011;66481;51.332;22.804;2023-02-28T21:36:37;130.35;;;51.88;;
77409;SDS011;66481;51.332;22.804;2023-02-28T21:40:39;131.77;;;53.42;;
77409;SDS011;66481;51.332;22.804;2023-02-28T21:44:40;130.45;;;50.67;;
77409;SDS011;66481;51.332;22.804;2023-02-28T21:48:42;117.97;;;49.50;;
77409;SDS011;66481;51.332;22.804;2023-02-28T21:52:43;124.22;;;46.03;;
77409;SDS011;66481;51.332;22.804;2023-02-28T21:56:45;128.45;;;53.83;;
77409;SDS011;66481;51.332;22.804;2023-02-28T22:00:46;139.85;;;53.10;;
77409;SDS011;66481;51.332;22.804;2023-02-28T22:04:48;124.75;;;50.97;;
77409;SDS011;66481;51.332;22.804;2023-02-28T22:08:53;125.60;;;48.63;;
77409;SDS011;66481;51.332;22.804;2023-02-28T22:12:55;110.63;;;45.70;;
77409;SDS011;66481;51.332;22.804;2023-02-28T22:17:01;123.43;;;47.28;;
77409;SDS011;66481;51.332;22.804;2023-02-28T22:21:07;127.78;;;47.65;;
77409;SDS011;66481;51.332;22.804;2023-02-28T22:25:10;125.30;;;50.95;;
77409;SDS011;66481;51.332;22.804;2023-02-28T22:29:12;127.28;;;56.13;;
77409;SDS011;66481;51.332;22.804;2023-02-28T22:33:15;124.43;;;55.58;;
77409;SDS011;66481;51.332;22.804;2023-02-28T22:37:18;113.30;;;43.63;;
77409;SDS011;66481;51.332;22.804;2023-02-28T22:41:21;106.30;;;44.72;;
77409;SDS011;66481;51.332;22.804;2023-02-28T22:45:23;101.90;;;41.63;;
77409;SDS011;66481;51.332;22.804;2023-02-28T22:49:25;106.53;;;41.42;;
77409;SDS011;66481;51.332;22.804;2023-02-28T22:53:28;100.63;;;41.85;;
77409;SDS011;66481;51.332;22.804;2023-02-28T22:57:31;112.70;;;46.17;;
77409;SDS011;66481;51.332;22.804;2023-02-28T23:01:33;115.05;;;43.47;;
77409;SDS011;66481;51.332;22.804;2023-02-28T23:05:35;104.63;;;42.28;;
77409;SDS011;66481;51.332;22.804;2023-02-28T23:09:37;103.80;;;44.75;;
77409;SDS011;66481;51.332;22.804;2023-02-28T23:13:38;103.45;;;43.08;;
77409;SDS011;66481;51.332;22.804;2023-02-28T23:17:40;92.72;;;40.53;;
77409;SDS011;66481;51.332;22.804;2023-02-28T23:21:43;94.40;;;41.10;;
77409;SDS011;66481;51.332;22.804;2023-02-28T23:25:45;108.10;;;43.28;;
77409;SDS011;66481;51.332;22.804;2023-02-28T23:29:46;113.18;;;45.40;;
77409;SDS011;66481;51.332;22.804;2023-02-28T23:33:48;108.13;;;43.05;;
77409;SDS011;66481;51.332;22.804;2023-02-28T23:37:49;110.82;;;44.65;;
77409;SDS011;66481;51.332;22.804;2023-02-28T23:41:51;112.40;;;45.67;;
77409;SDS011;66481;51.332;22.804;2023-02-28T23:45:54;100.28;;;44.05;;
77409;SDS011;66481;51.332;22.804;2023-02-28T23:49:56;109.70;;;43.53;;
77409;SDS011;66481;51.332;22.804;2023-02-28T23:53:57;99.95;;;42.28;;
77409;SDS011;66481;51.332;22.804;2023-02-28T23:57:59;96.57;;;39.63;;
